Flight Track Log - Related Links

Times and Time Zones

All times are in EDT time to prevent confusion due to time zone crossing. See the N803CM flight status page for this flight to view local times or setup timezone preferences in your user account.

Time Position Orientation Groundspeed Altitude Reporting Facility
EDT Latitude Longitude Course Direction KTS MPH feet Rate Location/Type
Thu 01:08:16 PM 41.8417 -74.1261 224° Southwest 129 148 8,600  Level Boston Center
Thu 01:09:16 PM 41.8078 -74.1697 224° Southwest 155 178 8,600  Level Boston Center
Thu 01:10:16 PM 41.7736 -74.2161 225° Southwest 176 203 8,600  Level Boston Center
Thu 01:11:16 PM 41.7394 -74.2681 229° Southwest 181 208 8,600  Level Boston Center
Thu 01:12:16 PM 41.7075 -74.3200 231° Southwest 186 214 8,600 -50 Level Boston Center
Thu 01:13:16 PM 41.6733 -74.3717 228° Southwest 186 214 8,500 -50 Descending Boston Center
Thu 01:14:16 PM 41.6389 -74.4206 227° Southwest 186 214 8,500  Level Boston Center
Thu 01:15:16 PM 41.6089 -74.4669 229° Southwest 186 214 8,500  Level Boston Center
Thu 01:17:00 PM 41.5612 -74.5180 219° Southwest  Level FlightAware Approximate
Thu 01:19:46 PM 41.4361 -74.6839 224° Southwest 188 216 8,500  Level New York Center
Thu 01:20:46 PM 41.4036 -74.7236 223° Southwest 188 216 8,500  Level New York Center
Thu 01:21:47 PM 41.3603 -74.7789 224° Southwest 188 216 8,500  Level New York Center
Thu 01:22:48 PM 41.3253 -74.8239 224° Southwest 188 216 8,500  Level New York Center
Thu 01:23:46 PM 41.2861 -74.8711 222° Southwest 193 222 8,500  Level New York Center
Thu 01:24:00 PM 41.3777 -74.7385 224° Southwest  Level FlightAware Approximate
Thu 01:24:47 PM 41.2511 -74.9214 227° Southwest 193 222 8,500  Level New York Center
Thu 01:25:48 PM 41.2164 -74.9633 222° Southwest 193 222 8,500  Level New York Center
Thu 01:26:48 PM 41.1772 -75.0106 222° Southwest 193 222 8,500  Level New York Center
Thu 01:27:48 PM 41.1358 -75.0603 222° Southwest 193 222 8,500  Level New York Center
Thu 01:28:49 PM 41.0967 -75.1047 221° Southwest 193 222 8,500  Level New York Center
Thu 01:29:46 PM 41.0575 -75.1517 222° Southwest 193 222 8,500  Level New York Center
Thu 01:30:47 PM 41.0181 -75.1986 222° Southwest 198 228 8,500  Level New York Center
Thu 01:31:47 PM 40.9789 -75.2456 222° Southwest 198 228 8,500  Level New York Center
Thu 01:32:48 PM 40.9439 -75.2900 224° Southwest 198 228 8,500  Level New York Center
Thu 01:33:48 PM 40.9047 -75.3367 222° Southwest 198 228 8,500  Level New York Center
Thu 01:34:46 PM 40.8653 -75.3864 224° Southwest 198 228 8,500  Level New York Center
Thu 01:35:47 PM 40.8258 -75.4331 222° Southwest 198 228 8,500  Level New York Center
Thu 01:36:48 PM 40.7886 -75.4797 224° Southwest 198 228 8,500  Level New York Center
Thu 01:37:48 PM 40.7511 -75.5292 225° Southwest 198 228 8,500  Level New York Center
Thu 01:38:47 PM 40.7117 -75.5758 222° Southwest 193 222 8,500  Level New York Center
Thu 01:39:47 PM 40.6789 -75.6172 224° Southwest 198 228 8,500 -50 Level New York Center
Thu 01:40:48 PM 40.6369 -75.6717 225° Southwest 198 228 8,400  Descending New York Center
Thu 01:41:48 PM 40.5994 -75.7211 225° Southwest 193 222 8,500  Climbing New York Center
Thu 01:42:48 PM 40.5622 -75.7675 223° Southwest 193 222 8,400  Descending New York Center
Thu 01:43:46 PM 40.5269 -75.8114 223° Southwest 193 222 8,500 50 Climbing New York Center
Thu 01:44:47 PM 40.4894 -75.8578 223° Southwest 193 222 8,500 -496 Level New York Center
Thu 01:45:47 PM 40.4397 -75.9006 213° Southwest 193 222 7,500 -1,140 Descending New York Center
Thu 01:46:48 PM 40.3981 -75.9464 220° Southwest 211 243 6,200 -1,250 Descending New York Center
Thu 01:47:47 PM 40.3442 -75.9858 209° Southwest 211 243 5,000 -1,059 Descending New York Center
Thu 01:48:47 PM 40.3072 -76.0239 218° Southwest 197 227 4,100 -793 Descending New York Center
Thu 01:49:48 PM 40.2692 -76.0783 228° Southwest 189 217 3,400 -655 Descending New York Center
Thu 01:50:46 PM 40.2422 -76.1225 231° Southwest 183 211 2,800 -661 Descending New York Center
Thu 01:51:46 PM 40.2067 -76.1742 228° Southwest 177 204 2,100 -645 Descending New York Center
Thu 01:52:47 PM 40.1778 -76.2097 223° Southwest 177 204 1,500 -590 Descending New York Center
Thu 02:01:00 PM 40.1311 -76.2598 227° Southwest  Level FlightAware Approximate
Thu 02:08:00 PM 40.1167 -76.2833 43° Northeast  Level FlightAware Approximate
Thu 02:09:00 PM 40.1224 -76.2944 43° Northeast  Level Estimated
Thu 02:10:00 PM 40.1224 -76.2944 43° Northeast  Level Estimated
Thu 02:11:00 PM 40.1224 -76.2944 43° Northeast  Level Estimated
Thu 02:12:00 PM 40.1224 -76.2944 43° Northeast  Level Estimated
Thu 02:13:00 PM 40.1224 -76.2944 43° Northeast  Level Estimated

Login

Don't have an account? Register now (free) for customized features, flight alerts, and more!